createdAt,value
2022-12-15T01:21:06.131Z,19.35
2022-12-15T01:23:39.169Z,19.87
2022-12-15T01:26:11.848Z,18.57
2022-12-15T01:28:45.351Z,18.27
2022-12-15T01:31:18.125Z,19.32
2022-12-15T01:33:52.268Z,17.48
2022-12-15T01:36:25.974Z,19.52
2022-12-15T01:38:58.281Z,17.90
2022-12-15T01:41:30.656Z,20.55
2022-12-15T01:44:23.866Z,19.73
2022-12-15T01:46:57.061Z,20.88
2022-12-15T01:49:30.250Z,20.62
2022-12-15T01:52:03.853Z,21.40
2022-12-15T01:54:52.951Z,18.20
2022-12-15T01:57:29.853Z,21.50
2022-12-15T02:00:02.792Z,19.67
2022-12-15T02:02:40.362Z,20.40
2022-12-15T02:05:12.297Z,18.85
2022-12-15T02:07:44.907Z,20.37
2022-12-15T02:10:17.194Z,20.55
2022-12-15T02:13:03.750Z,19.35
2022-12-15T02:15:52.599Z,21.00
2022-12-15T02:18:46.165Z,19.92
2022-12-15T02:21:26.162Z,19.20
2022-12-15T02:24:22.809Z,20.65
2022-12-15T02:27:12.091Z,19.00
2022-12-15T02:30:20.070Z,17.15
2022-12-15T02:33:06.101Z,23.80
2022-12-15T02:35:58.718Z,19.60
2022-12-15T02:38:35.073Z,18.20
2022-12-15T02:41:09.839Z,19.57
2022-12-15T02:43:42.267Z,17.15
2022-12-15T02:46:35.289Z,19.12
2022-12-15T02:49:24.685Z,20.10
2022-12-15T02:52:16.597Z,19.82
2022-12-15T02:55:11.558Z,19.77
2022-12-15T03:00:21.810Z,20.08
2022-12-15T03:02:55.631Z,18.92
2022-12-15T03:05:28.306Z,19.10
2022-12-15T03:08:01.511Z,18.52
2022-12-15T03:10:34.040Z,22.57
2022-12-15T03:13:06.656Z,18.87
2022-12-15T03:15:39.719Z,19.07
2022-12-15T03:18:12.510Z,19.52
2022-12-15T03:20:45.547Z,21.07
2022-12-15T03:23:17.866Z,17.25
2022-12-15T03:25:50.633Z,18.48
2022-12-15T03:28:23.227Z,19.35
2022-12-15T03:30:56.615Z,18.70
2022-12-15T03:33:29.553Z,16.40
2022-12-15T03:36:02.400Z,18.02
2022-12-15T03:38:35.178Z,16.45
2022-12-15T03:41:07.754Z,19.12
2022-12-15T03:43:40.262Z,17.10
2022-12-15T03:46:12.722Z,16.70
2022-12-15T03:48:45.387Z,15.70
2022-12-15T03:51:17.866Z,17.35
2022-12-15T03:53:50.206Z,16.93
2022-12-15T03:56:22.796Z,21.95
2022-12-15T03:58:55.492Z,15.55
2022-12-15T04:01:33.265Z,16.27
2022-12-15T04:04:06.324Z,21.82
2022-12-15T04:06:38.976Z,17.37
2022-12-15T04:09:11.612Z,16.57
2022-12-15T04:11:44.465Z,15.75
2022-12-15T04:14:16.895Z,18.45
2022-12-15T04:16:49.294Z,21.45
2022-12-15T04:19:39.969Z,18.90
2022-12-15T04:22:17.684Z,19.75
2022-12-15T04:25:05.222Z,17.80
2022-12-15T04:28:01.205Z,17.30
2022-12-15T04:30:48.999Z,16.77
2022-12-15T04:33:39.730Z,17.10
2022-12-15T04:36:30.865Z,18.57
2022-12-15T04:39:22.993Z,16.35
2022-12-15T04:42:13.309Z,16.00
2022-12-15T04:45:03.488Z,18.12
2022-12-15T04:47:54.386Z,14.83
2022-12-15T04:50:44.712Z,14.80
2022-12-15T04:53:36.558Z,16.00
2022-12-15T04:56:31.297Z,17.40
2022-12-15T04:59:21.488Z,15.00
2022-12-15T05:02:12.529Z,16.42
2022-12-15T05:05:02.880Z,15.35
2022-12-15T05:07:53.893Z,16.05
2022-12-15T05:10:44.584Z,16.57
2022-12-15T05:13:35.308Z,14.43
2022-12-15T05:16:26.179Z,13.90
2022-12-15T05:19:16.996Z,17.25
2022-12-15T05:22:07.448Z,15.58
2022-12-15T05:24:58.813Z,16.27
2022-12-15T05:27:49.293Z,14.10
2022-12-15T05:30:39.992Z,17.37
2022-12-15T05:33:12.917Z,14.33
2022-12-15T05:35:45.348Z,14.95
2022-12-15T05:38:18.681Z,16.62
2022-12-15T05:40:51.233Z,16.23
2022-12-15T05:43:26.521Z,16.57
2022-12-15T05:45:58.245Z,20.25
2022-12-15T05:48:31.135Z,13.48
2022-12-15T05:51:08.417Z,15.75
2022-12-15T05:53:41.721Z,15.40
2022-12-15T05:56:15.303Z,18.37
2022-12-15T05:58:48.348Z,21.42
2022-12-15T06:01:21.417Z,20.05
2022-12-15T06:03:54.058Z,17.80
2022-12-15T06:06:26.832Z,19.12
2022-12-15T06:09:00.158Z,18.73
2022-12-15T06:11:32.753Z,17.27
2022-12-15T06:14:05.573Z,16.23
2022-12-15T06:16:49.802Z,17.55
2022-12-15T06:21:44.537Z,18.98
2022-12-15T06:24:17.047Z,16.57
2022-12-15T06:26:50.147Z,19.98
2022-12-15T06:29:22.886Z,19.45
2022-12-15T06:31:55.386Z,20.20
2022-12-15T06:34:28.368Z,17.62
2022-12-15T06:37:00.825Z,19.92
2022-12-15T06:39:33.393Z,20.62
2022-12-15T06:42:06.071Z,23.22
2022-12-15T06:44:38.537Z,20.90
2022-12-15T06:47:11.473Z,17.77
2022-12-15T06:49:43.996Z,18.55
2022-12-15T06:52:16.477Z,22.05
2022-12-15T06:54:49.973Z,18.10
2022-12-15T06:57:22.936Z,21.70
2022-12-15T06:59:55.405Z,20.27
2022-12-15T07:02:29.709Z,25.50
2022-12-15T07:05:02.824Z,18.62
2022-12-15T07:07:35.314Z,20.08
2022-12-15T07:10:08.901Z,23.98
2022-12-15T07:12:41.831Z,21.62
2022-12-15T07:15:14.964Z,21.75
2022-12-15T07:17:47.516Z,19.55
2022-12-15T07:20:22.869Z,21.42
2022-12-15T07:22:54.923Z,21.73
2022-12-15T10:35:55.638Z,12.85
2022-12-15T10:38:42.701Z,15.63
2022-12-15T10:41:25.960Z,20.05
2022-12-15T10:43:58.469Z,14.28
2022-12-15T10:46:32.374Z,16.17
2022-12-15T10:49:15.942Z,15.30
2022-12-15T10:52:29.882Z,15.95
2022-12-15T10:55:02.321Z,17.07
2022-12-15T10:57:36.160Z,17.30
2022-12-15T11:00:21.206Z,16.10
2022-12-15T11:02:53.806Z,16.43
2022-12-15T11:05:26.741Z,15.85
2022-12-15T11:08:17.714Z,15.68
2022-12-15T11:11:15.584Z,16.12
2022-12-15T11:14:09.851Z,14.60
2022-12-15T11:16:55.066Z,16.53
2022-12-15T11:19:41.825Z,16.40
2022-12-15T11:22:46.644Z,17.60
2022-12-15T11:25:41.760Z,15.45
2022-12-15T11:28:24.502Z,19.02
2022-12-15T11:31:03.666Z,18.75
2022-12-15T11:33:36.483Z,18.10
2022-12-15T11:36:16.765Z,18.07
2022-12-15T11:38:57.666Z,19.35
2022-12-15T11:42:05.776Z,19.30
2022-12-15T11:44:55.107Z,16.30
2022-12-15T11:47:54.705Z,18.77
2022-12-15T11:51:03.994Z,15.50
2022-12-15T11:54:09.213Z,14.13
2022-12-15T11:59:31.473Z,17.48
2022-12-15T12:02:14.523Z,17.12
2022-12-15T12:05:17.602Z,14.95
2022-12-15T12:08:19.499Z,12.65
2022-12-15T12:11:18.410Z,10.55
2022-12-15T12:14:12.123Z,9.48
2022-12-15T12:17:16.348Z,10.03
2022-12-15T12:19:57.629Z,12.90
2022-12-15T12:25:20.611Z,11.68
2022-12-15T12:28:31.083Z,8.48
2022-12-15T12:31:04.491Z,10.80
2022-12-15T12:33:46.585Z,9.05
2022-12-15T12:36:20.570Z,9.60
2022-12-15T12:38:56.317Z,8.88
2022-12-15T12:41:51.720Z,7.58
2022-12-15T12:44:43.627Z,9.20
2022-12-15T12:47:23.384Z,10.23
2022-12-15T12:50:03.982Z,10.40
2022-12-15T12:52:38.261Z,10.45
2022-12-15T12:55:30.606Z,7.62
2022-12-15T12:58:02.923Z,10.58
2022-12-15T13:00:36.052Z,9.40
2022-12-15T13:03:16.781Z,10.18
2022-12-15T13:05:51.067Z,8.63
2022-12-15T13:08:31.115Z,10.13
2022-12-15T13:11:08.464Z,11.22
2022-12-15T13:13:51.068Z,11.70
2022-12-15T13:16:27.108Z,10.95
2022-12-15T13:19:08.607Z,9.33
2022-12-15T13:21:51.741Z,9.50
2022-12-15T13:24:37.591Z,10.85
2022-12-15T13:27:15.500Z,15.00
2022-12-15T13:30:13.417Z,12.50
2022-12-15T13:32:47.954Z,13.43
2022-12-15T13:35:34.686Z,12.55
2022-12-15T13:38:10.026Z,17.48
2022-12-15T13:40:54.319Z,17.07
2022-12-15T13:43:38.071Z,15.25
2022-12-15T13:46:20.724Z,18.37
2022-12-15T13:49:07.702Z,18.17
2022-12-15T13:51:51.632Z,19.27
2022-12-15T13:54:27.071Z,15.75
2022-12-15T13:57:15.742Z,16.90
2022-12-15T13:59:50.714Z,18.30
2022-12-15T14:02:35.946Z,18.65
2022-12-15T14:05:22.465Z,18.20
2022-12-15T14:07:59.482Z,17.12
2022-12-15T14:10:56.380Z,18.05
2022-12-15T14:13:31.905Z,16.10
2022-12-15T14:16:21.323Z,15.28
2022-12-15T14:19:15.423Z,16.55
2022-12-15T14:21:59.686Z,19.00
2022-12-15T14:24:39.512Z,22.55
2022-12-15T14:27:08.772Z,17.62
2022-12-15T14:29:41.363Z,17.57
2022-12-15T14:32:16.112Z,16.62
2022-12-15T14:34:50.702Z,22.10
2022-12-15T14:37:23.384Z,18.48
2022-12-15T14:39:56.008Z,16.87
2022-12-15T14:42:50.650Z,17.80
2022-12-15T14:45:29.352Z,16.37
2022-12-15T14:50:48.008Z,16.95
2022-12-15T14:53:21.090Z,16.30
2022-12-15T14:55:54.955Z,22.22
2022-12-15T14:58:35.887Z,16.60
2022-12-15T15:01:31.297Z,20.95
2022-12-15T15:06:40.833Z,19.60
2022-12-15T15:09:24.404Z,18.60
2022-12-15T15:12:16.360Z,20.25
2022-12-15T15:14:58.217Z,21.23
2022-12-15T15:17:53.553Z,20.92
2022-12-15T15:20:34.441Z,17.42
2022-12-15T15:23:18.537Z,19.57
2022-12-15T15:25:56.676Z,21.75
2022-12-15T15:28:32.392Z,19.60
2022-12-15T15:31:25.105Z,19.52
2022-12-15T15:33:59.628Z,19.70
2022-12-15T15:39:15.921Z,18.25
2022-12-15T15:41:48.407Z,23.30
2022-12-15T15:44:21.095Z,21.00
2022-12-15T15:46:54.404Z,18.20
2022-12-15T15:49:27.541Z,19.42
2022-12-15T15:52:01.904Z,20.50
2022-12-15T15:54:36.244Z,22.25
2022-12-15T15:57:12.217Z,22.07
2022-12-15T15:59:46.726Z,19.20
2022-12-15T16:02:19.398Z,23.55
2022-12-15T16:04:52.038Z,20.48
2022-12-15T16:07:28.435Z,21.50
2022-12-15T16:10:00.956Z,20.62
2022-12-15T19:21:30.264Z,38.25
2022-12-15T19:24:02.646Z,40.10
2022-12-15T19:26:35.122Z,40.03
2022-12-15T19:29:19.908Z,42.90
2022-12-15T19:31:52.648Z,37.20
2022-12-15T19:34:25.093Z,44.35
2022-12-15T19:36:58.123Z,43.55
2022-12-15T19:39:32.791Z,46.18
2022-12-15T19:42:29.479Z,43.98
2022-12-15T19:45:03.388Z,44.80
2022-12-15T19:47:38.355Z,36.93
2022-12-15T19:50:18.828Z,39.75
2022-12-15T19:52:54.892Z,39.92
2022-12-15T19:55:36.048Z,37.45
2022-12-15T19:58:27.380Z,42.58
2022-12-15T20:01:00.559Z,39.38
2022-12-15T20:03:35.763Z,39.73
2022-12-15T20:06:26.745Z,33.70
2022-12-15T20:09:00.908Z,37.35
2022-12-15T20:11:34.620Z,43.48
2022-12-15T20:14:18.272Z,38.75
2022-12-15T20:16:51.481Z,37.60
2022-12-15T20:19:23.892Z,37.60
2022-12-15T20:21:56.949Z,40.20
2022-12-15T20:24:29.404Z,42.83
2022-12-15T20:27:04.921Z,39.00
2022-12-15T20:29:36.200Z,45.05
2022-12-15T20:32:19.506Z,39.25
2022-12-15T20:34:53.263Z,45.43
2022-12-15T20:37:29.529Z,39.92
2022-12-15T20:40:02.654Z,38.28
2022-12-15T20:42:35.813Z,43.10
2022-12-15T20:45:30.305Z,36.55
2022-12-15T20:50:40.578Z,39.27
2022-12-15T20:53:20.688Z,35.58
2022-12-15T20:55:54.380Z,33.50
2022-12-15T20:58:32.896Z,31.48
2022-12-15T21:01:02.562Z,30.00
2022-12-15T21:03:36.746Z,32.45
2022-12-15T21:06:10.943Z,31.85
2022-12-15T21:08:43.279Z,29.13
2022-12-15T21:11:22.538Z,27.35
2022-12-15T21:13:58.932Z,32.63
2022-12-15T21:16:32.734Z,28.35
2022-12-15T21:19:22.374Z,35.15
2022-12-15T21:21:54.970Z,27.62
2022-12-15T21:24:28.722Z,31.80
2022-12-15T21:27:01.765Z,37.08
2022-12-15T21:29:34.378Z,30.10
2022-12-15T21:32:07.160Z,29.67
2022-12-15T21:34:39.689Z,30.55
2022-12-15T21:37:25.243Z,31.25
2022-12-15T21:39:58.274Z,32.38
2022-12-15T21:42:31.478Z,33.33
2022-12-15T21:45:04.155Z,33.83
2022-12-15T21:47:55.859Z,37.13
2022-12-15T21:50:28.731Z,35.73
2022-12-15T21:53:04.453Z,32.67
2022-12-15T21:55:39.790Z,30.85
2022-12-15T21:58:22.130Z,31.68
2022-12-15T22:00:54.545Z,32.95
2022-12-15T22:03:27.029Z,33.25
2022-12-15T22:05:59.733Z,33.92
2022-12-15T22:08:33.742Z,35.63
2022-12-15T22:11:10.114Z,33.42
2022-12-15T22:13:42.928Z,35.23
2022-12-15T22:16:16.154Z,34.50
2022-12-15T22:19:12.792Z,37.65
2022-12-15T22:21:45.291Z,38.67
2022-12-15T22:24:17.857Z,38.78
2022-12-15T22:26:50.427Z,34.75
2022-12-15T22:29:23.426Z,36.25
2022-12-15T22:31:56.510Z,35.20
2022-12-15T22:34:30.898Z,35.35
2022-12-15T22:39:36.329Z,37.58
2022-12-15T22:42:09.566Z,38.25
2022-12-15T22:44:42.325Z,37.40
2022-12-15T22:47:15.699Z,40.38
2022-12-15T22:49:48.263Z,34.08
2022-12-15T22:52:22.886Z,34.50
2022-12-15T22:57:29.271Z,37.67
2022-12-15T23:00:11.238Z,38.73
2022-12-15T23:02:46.287Z,35.88
2022-12-15T23:07:53.452Z,33.28
2022-12-15T23:10:46.189Z,36.90
2022-12-15T23:13:18.777Z,38.73
2022-12-15T23:16:08.811Z,41.90
2022-12-15T23:18:41.619Z,39.67
2022-12-15T23:21:14.653Z,37.00
2022-12-15T23:23:48.230Z,38.07
2022-12-15T23:26:23.844Z,38.55
2022-12-15T23:29:15.510Z,39.40
2022-12-15T23:31:47.954Z,35.88
2022-12-15T23:34:20.708Z,39.70
2022-12-15T23:36:53.679Z,38.28
2022-12-15T23:39:26.360Z,39.05
2022-12-15T23:41:58.651Z,39.27
2022-12-15T23:44:32.326Z,41.50
2022-12-15T23:47:05.596Z,37.10
2022-12-15T23:49:38.477Z,39.17
2022-12-15T23:52:11.555Z,43.02
2022-12-15T23:54:44.168Z,39.15
2022-12-15T23:57:17.467Z,39.65
2022-12-15T23:59:50.865Z,40.85
